Time;durP1;ratioP1;P1;durP2;ratioP2;P2;SDS_P1;SDS_P2;PMS_P1;PMS_P2;Temp;Humidity;BMP_temperature;BMP_pressure;BME280_temperature;BME280_humidity;BME280_pressure;Samples;Min_cycle;Max_cycle;Signal;HPM_P1;HPM_P2
2021/05/28 00:02:23;;;;;;;8.05;5.93;;;435.50;2355.20;;;;;;5074336;28;20052;-66
2021/05/28 00:04:49;;;;;;;9.95;6.18;;;435.40;2355.20;;;;;;5073933;28;20399;-68
2021/05/28 00:07:15;;;;;;;8.27;5.90;;;435.40;2355.20;;;;;;5074169;28;20024;-67
2021/05/28 00:09:40;;;;;;;9.35;7.13;;;435.50;2355.20;;;;;;5074005;28;20027;-68
2021/05/28 00:12:07;;;;;;;10.85;6.70;;;435.30;2355.20;;;;;;5073884;28;20027;-68
2021/05/28 00:14:33;;;;;;;8.23;6.40;;;435.20;2355.20;;;;;;5074228;28;20489;-66
2021/05/28 00:16:59;;;;;;;7.75;5.90;;;435.30;2355.20;;;;;;5073788;28;20104;-67
2021/05/28 00:19:25;;;;;;;9.15;6.47;;;435.30;2355.20;;;;;;5073796;28;20104;-67
2021/05/28 00:21:51;;;;;;;8.70;6.30;;;435.30;2355.20;;;;;;5073733;28;20033;-68
2021/05/28 00:24:16;;;;;;;9.85;6.75;;;435.30;2355.20;;;;;;5073909;28;20016;-67
2021/05/28 00:26:42;;;;;;;9.60;6.70;;;435.20;2355.20;;;;;;5073645;28;20040;-67
2021/05/28 00:29:08;;;;;;;8.88;6.47;;;435.20;2355.20;;;;;;5038550;28;20016;-68
2021/05/28 00:31:34;;;;;;;9.48;6.68;;;435.20;2355.20;;;;;;5065544;28;20020;-68
2021/05/28 00:34:00;;;;;;;9.68;6.68;;;410.50;2355.20;;;;;;5073055;28;20017;-67
2021/05/28 00:36:25;;;;;;;8.90;6.57;;;410.50;2355.20;;;;;;5073745;28;20482;-67
2021/05/28 00:38:52;;;;;;;10.07;6.47;;;410.50;2355.20;;;;;;5073614;28;20383;-67
2021/05/28 00:41:18;;;;;;;9.80;6.97;;;410.50;2355.20;;;;;;5073440;28;20024;-67
2021/05/28 00:43:44;;;;;;;11.85;7.07;;;410.40;2355.20;;;;;;5073112;28;20028;-66
2021/05/28 00:46:09;;;;;;;9.60;7.30;;;410.40;2355.20;;;;;;5073408;28;20052;-76
2021/05/28 00:48:35;;;;;;;11.98;7.60;;;410.30;2355.20;;;;;;5073119;28;20029;-69
2021/05/28 00:51:01;;;;;;;10.88;7.43;;;410.20;2355.20;;;;;;5072954;28;20025;-79
2021/05/28 00:53:28;;;;;;;13.43;7.82;;;410.10;2355.20;;;;;;5073127;28;20017;-77
2021/05/28 00:55:55;;;;;;;9.95;7.30;;;410.00;2355.20;;;;;;5072863;28;20044;-75
2021/05/28 00:58:21;;;;;;;9.52;7.00;;;410.00;2355.20;;;;;;5073324;28;20427;-78
2021/05/28 01:00:48;;;;;;;13.65;7.32;;;410.00;2355.20;;;;;;5054962;28;20055;-66
2021/05/28 01:03:15;;;;;;;9.18;7.15;;;410.00;2355.20;;;;;;5072924;28;20082;-70
2021/05/28 01:05:40;;;;;;;9.35;7.15;;;410.00;2355.20;;;;;;5072820;28;20505;-66
2021/05/28 01:08:06;;;;;;;10.65;7.07;;;410.00;2355.20;;;;;;5072734;28;20111;-67
2021/05/28 01:10:32;;;;;;;10.63;7.25;;;409.90;2355.20;;;;;;5072788;28;20112;-70
2021/05/28 01:13:10;;;;;;;9.48;6.95;;;409.90;2355.20;;;;;;5072599;28;20096;-67
2021/05/28 01:15:36;;;;;;;11.40;7.20;;;409.90;2355.20;;;;;;5069604;28;20020;-68
2021/05/28 01:18:03;;;;;;;10.57;7.30;;;409.90;2355.20;;;;;;5072969;28;20043;-73
2021/05/28 01:20:29;;;;;;;10.15;7.78;;;410.00;2355.20;;;;;;5072526;28;20528;-78
2021/05/28 01:22:58;;;;;;;9.55;7.25;;;410.00;2355.20;;;;;;5072635;28;20047;-79
2021/05/28 01:25:25;;;;;;;9.70;7.20;;;410.00;2355.20;;;;;;5072448;28;20056;-69
2021/05/28 01:27:51;;;;;;;9.57;7.47;;;410.00;2355.20;;;;;;5072748;28;20025;-72
2021/05/28 01:30:17;;;;;;;9.10;6.68;;;409.90;2355.20;;;;;;5054434;28;20556;-73
2021/05/28 01:32:44;;;;;;;10.30;7.15;;;409.90;2355.20;;;;;;5072551;28;20024;-76
2021/05/28 01:35:12;;;;;;;9.82;7.30;;;409.90;2355.20;;;;;;5072462;28;20052;-72
2021/05/28 01:37:38;;;;;;;10.48;6.90;;;409.80;2355.20;;;;;;5058368;28;20051;-68
2021/05/28 01:40:06;;;;;;;9.05;6.85;;;409.80;2355.20;;;;;;5072531;28;20017;-68
2021/05/28 01:42:33;;;;;;;11.32;6.82;;;409.80;2355.20;;;;;;5072147;28;20403;-77
2021/05/28 01:45:01;;;;;;;10.07;7.30;;;409.70;2355.20;;;;;;5071914;28;20031;-72
2021/05/28 01:47:27;;;;;;;9.90;7.05;;;409.70;2355.20;;;;;;5070545;28;20028;-73
2021/05/28 01:49:52;;;;;;;9.77;7.00;;;409.70;2355.20;;;;;;5072260;28;20067;-73
2021/05/28 01:52:19;;;;;;;9.77;7.13;;;409.70;2355.20;;;;;;5072165;28;20096;-73
2021/05/28 01:54:45;;;;;;;11.45;7.43;;;409.80;2355.20;;;;;;5072291;28;20028;-71
2021/05/28 01:57:12;;;;;;;9.55;7.35;;;409.70;2355.20;;;;;;5072237;28;20479;-73
2021/05/28 01:59:38;;;;;;;11.30;7.47;;;409.70;2355.20;;;;;;5054120;28;20083;-77
2021/05/28 02:02:05;;;;;;;9.68;7.07;;;409.70;2355.20;;;;;;5072067;28;20036;-68
2021/05/28 02:04:31;;;;;;;11.15;7.50;;;409.70;2355.20;;;;;;5071936;28;20490;-71
2021/05/28 02:06:58;;;;;;;13.38;8.55;;;409.70;2355.20;;;;;;5072109;28;20032;-70
2021/05/28 02:09:23;;;;;;;12.40;7.72;;;409.70;2355.20;;;;;;5071933;28;20112;-77
2021/05/28 02:11:49;;;;;;;12.43;7.53;;;409.70;2355.20;;;;;;5072079;28;20095;-72
2021/05/28 02:14:15;;;;;;;10.48;7.15;;;409.70;2355.20;;;;;;5072150;28;20124;-77
2021/05/28 02:16:41;;;;;;;9.98;7.15;;;409.70;2355.20;;;;;;5072247;28;20021;-71
2021/05/28 02:19:08;;;;;;;9.77;6.93;;;409.80;2355.20;;;;;;5070643;28;20024;-67
2021/05/28 02:21:35;;;;;;;10.18;7.60;;;409.80;2355.20;;;;;;5072169;28;20445;-68
2021/05/28 02:24:02;;;;;;;10.77;7.95;;;409.70;2355.20;;;;;;5072192;28;20413;-67
2021/05/28 02:26:28;;;;;;;10.60;7.15;;;409.70;2355.20;;;;;;5071888;28;20032;-67
2021/05/28 02:28:53;;;;;;;11.65;7.63;;;409.80;2355.20;;;;;;5071790;28;20033;-67
2021/05/28 02:31:19;;;;;;;10.18;7.88;;;409.70;2355.20;;;;;;5071726;28;20092;-66
2021/05/28 02:33:45;;;;;;;10.38;7.70;;;409.70;2355.20;;;;;;5072009;28;20425;-67
2021/05/28 02:36:11;;;;;;;10.77;7.40;;;409.60;2355.20;;;;;;5071960;28;20055;-66
2021/05/28 02:38:37;;;;;;;11.70;7.45;;;409.60;2355.20;;;;;;5071722;28;20175;-67
2021/05/28 02:41:03;;;;;;;11.32;8.00;;;409.60;2355.20;;;;;;5071930;28;20036;-66
2021/05/28 02:43:29;;;;;;;10.60;7.88;;;384.90;2329.60;;;;;;5071805;28;20055;-67
2021/05/28 02:45:56;;;;;;;10.80;7.70;;;384.80;2329.60;;;;;;5072056;28;20447;-67
2021/05/28 02:48:22;;;;;;;11.43;7.65;;;384.70;2329.60;;;;;;5071737;28;20028;-66
2021/05/28 02:50:48;;;;;;;10.10;7.45;;;384.90;2329.60;;;;;;5071659;28;20432;-67
2021/05/28 02:53:16;;;;;;;11.40;7.40;;;384.90;2329.60;;;;;;5071537;28;20021;-66
2021/05/28 02:55:42;;;;;;;11.95;7.95;;;384.90;2329.60;;;;;;5071263;28;20048;-68
2021/05/28 02:58:08;;;;;;;10.55;8.02;;;384.90;2329.60;;;;;;5074692;28;20107;-67
2021/05/28 03:00:34;;;;;;;12.82;8.00;;;384.90;2329.60;;;;;;5075172;28;20063;-67
2021/05/28 03:02:59;;;;;;;11.07;8.15;;;384.90;2329.60;;;;;;5075303;28;20051;-67
2021/05/28 03:05:25;;;;;;;11.25;7.85;;;384.80;2329.60;;;;;;5075068;28;20095;-66
2021/05/28 03:07:51;;;;;;;10.63;7.53;;;384.80;2329.60;;;;;;5075347;28;20111;-67
2021/05/28 03:10:17;;;;;;;10.38;7.60;;;384.90;2329.60;;;;;;5075089;28;20021;-66
2021/05/28 03:12:43;;;;;;;10.88;7.80;;;409.60;2355.20;;;;;;5075023;28;20074;-67
2021/05/28 03:15:10;;;;;;;10.82;7.85;;;384.90;2329.60;;;;;;5074991;28;20102;-68
2021/05/28 03:17:36;;;;;;;10.73;8.40;;;409.60;2355.20;;;;;;5074766;28;20471;-68
2021/05/28 03:20:05;;;;;;;11.75;7.85;;;409.60;2355.20;;;;;;5075064;28;20052;-69
2021/05/28 03:22:36;;;;;;;10.70;7.75;;;409.60;2355.20;;;;;;5074648;28;20033;-67
2021/05/28 03:25:06;;;;;;;10.35;7.45;;;409.70;2355.20;;;;;;5074986;28;20036;-67
2021/05/28 03:27:32;;;;;;;11.90;7.40;;;409.70;2355.20;;;;;;5075004;28;20108;-66
2021/05/28 03:29:58;;;;;;;9.32;7.47;;;409.80;2355.20;;;;;;5074512;28;20027;-67
2021/05/28 03:32:24;;;;;;;11.82;8.88;;;409.80;2355.20;;;;;;5074632;28;20416;-67
2021/05/28 03:34:52;;;;;;;12.80;9.20;;;409.90;2355.20;;;;;;5074634;28;20104;-66
2021/05/28 03:37:18;;;;;;;10.60;7.97;;;410.00;2355.20;;;;;;5074647;28;20442;-67
2021/05/28 03:39:48;;;;;;;9.23;7.30;;;410.00;2355.20;;;;;;5074773;28;20055;-67
2021/05/28 03:42:14;;;;;;;10.48;7.68;;;410.00;2355.20;;;;;;5074723;28;20383;-66
2021/05/28 03:44:39;;;;;;;10.85;7.28;;;410.20;2355.20;;;;;;5074377;28;20029;-66
2021/05/28 03:47:05;;;;;;;10.27;7.68;;;410.20;2355.20;;;;;;5074516;28;20029;-67
2021/05/28 03:49:31;;;;;;;11.65;7.60;;;410.30;2355.20;;;;;;5074386;28;20028;-66
2021/05/28 03:51:57;;;;;;;9.30;7.03;;;410.30;2355.20;;;;;;5074152;28;20035;-66
2021/05/28 03:54:23;;;;;;;11.05;7.82;;;410.30;2355.20;;;;;;5074251;28;20031;-67
2021/05/28 03:56:49;;;;;;;10.02;7.50;;;410.30;2355.20;;;;;;5074074;28;20333;-67
2021/05/28 03:59:15;;;;;;;9.45;7.00;;;410.40;2355.20;;;;;;5074106;28;20078;-67
2021/05/28 04:01:41;;;;;;;9.05;7.00;;;410.40;2355.20;;;;;;5074074;28;20056;-67
2021/05/28 04:04:07;;;;;;;9.25;6.80;;;410.50;2355.20;;;;;;5074180;28;20489;-67
2021/05/28 04:06:33;;;;;;;10.85;7.30;;;435.20;2355.20;;;;;;5074097;28;20029;-66
2021/05/28 04:08:58;;;;;;;8.85;6.80;;;435.30;2355.20;;;;;;5073057;28;20465;-66
2021/05/28 04:11:24;;;;;;;12.02;8.18;;;435.30;2355.20;;;;;;5073657;28;20028;-66
2021/05/28 04:13:51;;;;;;;17.38;10.20;;;435.30;2355.20;;;;;;5073831;28;20028;-66
2021/05/28 04:16:17;;;;;;;11.35;8.88;;;435.30;2355.20;;;;;;5073739;28;20023;-67
2021/05/28 04:18:42;;;;;;;10.48;6.43;;;435.40;2355.20;;;;;;5073586;28;20032;-67
2021/05/28 04:21:08;;;;;;;7.63;4.60;;;435.50;2355.20;;;;;;5073679;28;20025;-67
2021/05/28 04:23:34;;;;;;;5.32;3.70;;;435.50;2355.20;;;;;;5073652;28;20051;-66
2021/05/28 04:26:00;;;;;;;7.15;4.22;;;435.50;2355.20;;;;;;5073552;28;20479;-67
2021/05/28 04:28:28;;;;;;;6.47;3.70;;;435.60;2355.20;;;;;;5073505;28;20029;-66
2021/05/28 04:30:55;;;;;;;6.05;3.05;;;435.60;2355.20;;;;;;5073451;28;20031;-66
2021/05/28 04:33:21;;;;;;;7.57;3.10;;;435.60;2355.20;;;;;;5073249;28;20025;-67
2021/05/28 04:35:46;;;;;;;5.85;2.88;;;435.60;2355.20;;;;;;5073527;28;20028;-67
2021/05/28 04:38:12;;;;;;;6.85;3.05;;;435.60;2355.20;;;;;;5073200;28;20020;-66
2021/05/28 04:40:38;;;;;;;5.53;3.03;;;435.60;2355.20;;;;;;5073531;28;20450;-67
2021/05/28 04:43:04;;;;;;;6.25;3.00;;;435.60;2355.20;;;;;;5073173;28;20032;-65
2021/05/28 04:45:29;;;;;;;4.97;3.10;;;435.60;2355.20;;;;;;5073364;28;20024;-67
2021/05/28 04:47:55;;;;;;;8.13;3.63;;;435.60;2355.20;;;;;;5073291;28;20036;-67
2021/05/28 04:50:22;;;;;;;8.23;3.30;;;435.60;2355.20;;;;;;5072925;28;20111;-67
2021/05/28 04:52:47;;;;;;;8.10;3.80;;;435.60;2355.20;;;;;;5073158;28;20020;-67
2021/05/28 04:55:14;;;;;;;6.00;3.95;;;435.60;2355.20;;;;;;5072653;28;20040;-66
2021/05/28 04:57:41;;;;;;;7.68;4.22;;;435.50;2355.20;;;;;;5073084;28;20025;-66
2021/05/28 05:00:08;;;;;;;7.55;4.10;;;435.40;2355.20;;;;;;5072434;28;20037;-66
2021/05/28 05:02:34;;;;;;;7.72;4.20;;;435.30;2355.20;;;;;;5073164;28;20029;-66
2021/05/28 05:05:00;;;;;;;7.53;4.35;;;435.30;2355.20;;;;;;5073077;28;20032;-66
2021/05/28 05:07:26;;;;;;;7.45;5.25;;;435.20;2355.20;;;;;;5072625;28;20025;-67
2021/05/28 05:09:51;;;;;;;7.50;5.47;;;410.50;2355.20;;;;;;5073003;28;20394;-66
2021/05/28 05:12:17;;;;;;;8.38;6.22;;;410.40;2355.20;;;;;;5072408;28;20024;-68
2021/05/28 05:14:43;;;;;;;8.00;6.60;;;410.30;2355.20;;;;;;5072733;28;20548;-66
2021/05/28 05:17:08;;;;;;;8.48;6.30;;;410.10;2355.20;;;;;;5072346;28;20024;-68
2021/05/28 05:19:34;;;;;;;8.02;6.40;;;410.00;2355.20;;;;;;5072583;28;20103;-71
2021/05/28 05:22:00;;;;;;;7.47;6.20;;;410.00;2355.20;;;;;;5072511;28;20093;-67
2021/05/28 05:24:26;;;;;;;9.07;6.85;;;409.90;2355.20;;;;;;5072325;28;20017;-68
2021/05/28 05:26:51;;;;;;;8.65;6.43;;;410.00;2355.20;;;;;;5072187;28;20028;-69
2021/05/28 05:29:17;;;;;;;8.52;6.25;;;410.00;2355.20;;;;;;5072371;28;20040;-69
2021/05/28 05:31:44;;;;;;;8.68;5.97;;;410.00;2355.20;;;;;;5072332;28;20012;-70
2021/05/28 05:34:09;;;;;;;6.35;5.40;;;410.00;2355.20;;;;;;5072673;28;20021;-68
2021/05/28 05:36:35;;;;;;;8.00;5.88;;;410.00;2355.20;;;;;;5072255;28;20779;-67
2021/05/28 05:39:03;;;;;;;8.07;5.45;;;410.00;2355.20;;;;;;5072421;28;20032;-68
2021/05/28 05:41:29;;;;;;;7.32;5.30;;;410.00;2355.20;;;;;;5070681;28;20029;-69
2021/05/28 05:43:55;;;;;;;5.97;5.15;;;410.10;2355.20;;;;;;5072316;28;20033;-68
2021/05/28 05:46:21;;;;;;;7.03;4.90;;;409.90;2355.20;;;;;;5071976;28;20020;-68
2021/05/28 05:48:47;;;;;;;8.73;5.13;;;410.00;2355.20;;;;;;5072264;28;20128;-67
2021/05/28 05:51:12;;;;;;;6.80;4.63;;;410.00;2355.20;;;;;;5071404;28;20115;-67
2021/05/28 05:53:38;;;;;;;6.13;4.75;;;410.10;2355.20;;;;;;5072112;28;20039;-68
2021/05/28 05:56:04;;;;;;;5.90;4.97;;;410.20;2355.20;;;;;;5072032;28;20043;-67
2021/05/28 05:58:30;;;;;;;5.82;4.57;;;410.30;2355.20;;;;;;5071899;28;20075;-67
2021/05/28 06:00:56;;;;;;;7.70;4.60;;;410.30;2355.20;;;;;;5072291;28;20047;-67
2021/05/28 06:03:22;;;;;;;7.68;4.82;;;410.30;2355.20;;;;;;5072002;28;20446;-66
2021/05/28 06:05:48;;;;;;;7.47;4.47;;;410.20;2355.20;;;;;;5072006;28;20052;-68
2021/05/28 06:08:13;;;;;;;6.63;4.55;;;410.20;2355.20;;;;;;5071761;28;20555;-68
2021/05/28 06:10:39;;;;;;;5.68;4.20;;;410.20;2355.20;;;;;;5072244;28;20035;-68
2021/05/28 06:13:07;;;;;;;4.70;4.07;;;410.10;2355.20;;;;;;5071785;28;20501;-67
2021/05/28 06:15:34;;;;;;;4.68;3.88;;;410.10;2355.20;;;;;;5071735;28;20024;-67
2021/05/28 06:18:00;;;;;;;4.82;3.75;;;410.10;2355.20;;;;;;5071846;28;20543;-67
2021/05/28 06:20:25;;;;;;;6.80;4.88;;;410.10;2355.20;;;;;;5071678;28;20028;-67
2021/05/28 06:22:51;;;;;;;5.80;5.07;;;410.10;2355.20;;;;;;5071951;28;20368;-67
2021/05/28 06:25:17;;;;;;;4.70;3.72;;;410.30;2355.20;;;;;;5071841;28;20025;-67
2021/05/28 06:27:43;;;;;;;5.88;4.05;;;410.30;2355.20;;;;;;5071573;28;20020;-67
2021/05/28 06:30:10;;;;;;;6.00;4.50;;;410.40;2355.20;;;;;;5071968;28;20028;-67
2021/05/28 06:32:36;;;;;;;6.28;3.40;;;410.50;2355.20;;;;;;5074462;28;20024;-68
2021/05/28 06:35:03;;;;;;;4.88;3.00;;;410.40;2355.20;;;;;;5075556;28;20027;-68
2021/05/28 06:37:28;;;;;;;4.88;2.80;;;435.20;2355.20;;;;;;5075728;28;20020;-68
2021/05/28 06:39:54;;;;;;;4.65;2.60;;;435.20;2355.20;;;;;;5075468;28;20035;-68
2021/05/28 06:42:20;;;;;;;3.40;2.30;;;435.30;2355.20;;;;;;5075582;28;20024;-67
2021/05/28 06:44:46;;;;;;;3.45;2.08;;;435.40;2355.20;;;;;;5075461;28;20024;-68
2021/05/28 06:47:12;;;;;;;5.60;2.35;;;435.50;2355.20;;;;;;5075519;28;20055;-68
2021/05/28 06:49:37;;;;;;;5.30;2.30;;;435.50;2355.20;;;;;;5075453;28;20060;-68
2021/05/28 06:52:03;;;;;;;4.05;2.60;;;435.60;2355.20;;;;;;5075257;28;20083;-68
2021/05/28 06:54:30;;;;;;;3.42;2.30;;;435.90;2355.20;;;;;;5075664;28;20430;-68
2021/05/28 06:56:56;;;;;;;3.78;2.17;;;436.10;2355.20;;;;;;5074944;28;20055;-68
2021/05/28 06:59:22;;;;;;;3.25;2.10;;;460.80;2380.80;;;;;;5075258;28;20542;-68
2021/05/28 07:01:48;;;;;;;3.10;2.03;;;460.80;2380.80;;;;;;5075191;28;20021;-68
2021/05/28 07:04:13;;;;;;;5.47;2.00;;;460.80;2380.80;;;;;;5075282;28;20023;-67
2021/05/28 07:06:39;;;;;;;3.50;2.10;;;436.10;2355.20;;;;;;5075196;28;20112;-69
2021/05/28 07:09:06;;;;;;;3.20;2.10;;;436.10;2355.20;;;;;;5074879;28;20050;-67
2021/05/28 07:11:32;;;;;;;5.15;2.08;;;436.00;2355.20;;;;;;5075092;28;20031;-67
2021/05/28 07:13:58;;;;;;;4.05;2.10;;;436.00;2355.20;;;;;;5074778;28;20013;-68
2021/05/28 07:16:24;;;;;;;4.13;2.10;;;460.80;2380.80;;;;;;5075094;28;20066;-67
2021/05/28 07:18:50;;;;;;;4.20;2.20;;;460.90;2380.80;;;;;;5074601;28;20032;-67
2021/05/28 07:21:16;;;;;;;5.22;2.05;;;461.20;2380.80;;;;;;5072370;28;20052;-67
2021/05/28 07:23:42;;;;;;;3.17;2.10;;;461.50;2380.80;;;;;;5074938;28;20029;-67
2021/05/28 07:26:07;;;;;;;3.65;2.00;;;486.40;2380.80;;;;;;5074545;28;20479;-66
2021/05/28 07:28:33;;;;;;;4.15;1.92;;;486.70;2380.80;;;;;;5074743;28;20035;-67
2021/05/28 07:31:00;;;;;;;3.58;2.05;;;486.90;2380.80;;;;;;5074854;28;20115;-66
2021/05/28 07:33:26;;;;;;;3.58;1.90;;;486.90;2380.80;;;;;;5074638;28;20493;-67
2021/05/28 07:35:52;;;;;;;4.38;1.90;;;486.90;2380.80;;;;;;5074512;28;20027;-67
2021/05/28 07:38:18;;;;;;;2.97;1.80;;;486.80;2380.80;;;;;;5074510;28;20105;-67
2021/05/28 07:40:44;;;;;;;5.07;2.10;;;486.70;2380.80;;;;;;5074525;28;20055;-68
2021/05/28 07:43:10;;;;;;;4.18;1.90;;;486.70;2380.80;;;;;;5073204;28;20032;-68
2021/05/28 07:45:37;;;;;;;4.32;1.92;;;486.80;2380.80;;;;;;5074721;28;20097;-67
2021/05/28 07:48:03;;;;;;;2.70;1.70;;;486.70;2380.80;;;;;;5074467;28;20090;-67
2021/05/28 07:50:45;;;;;;;4.45;2.00;;;486.60;2380.80;;;;;;5074724;28;20016;-68
2021/05/28 07:53:17;;;;;;;3.30;2.00;;;486.60;2380.80;;;;;;5074542;28;20390;-67
2021/05/28 07:55:43;;;;;;;3.20;2.00;;;486.50;2380.80;;;;;;5074235;28;20053;-67
2021/05/28 07:58:09;;;;;;;4.75;2.20;;;486.40;2380.80;;;;;;5074537;28;20085;-67
2021/05/28 08:00:35;;;;;;;3.90;2.50;;;461.70;2380.80;;;;;;5074016;28;20382;-67
2021/05/28 08:03:01;;;;;;;3.65;2.10;;;461.50;2380.80;;;;;;5074124;28;20039;-67
2021/05/28 08:05:28;;;;;;;5.10;2.75;;;461.50;2380.80;;;;;;5073892;28;20470;-67
2021/05/28 08:07:55;;;;;;;4.55;2.70;;;461.50;2380.80;;;;;;5074102;28;20029;-68
2021/05/28 08:10:22;;;;;;;4.88;2.80;;;461.50;2380.80;;;;;;5073791;28;20498;-67
2021/05/28 08:12:49;;;;;;;5.38;3.17;;;461.50;2380.80;;;;;;5073816;28;20050;-67
2021/05/28 08:15:15;;;;;;;5.00;3.33;;;461.50;2380.80;;;;;;5056038;28;20081;-68
2021/05/28 08:17:41;;;;;;;5.25;4.00;;;461.50;2380.80;;;;;;5059435;28;20036;-67
2021/05/28 08:20:07;;;;;;;5.15;3.97;;;461.40;2380.80;;;;;;5073907;28;20387;-69
2021/05/28 08:22:33;;;;;;;5.25;4.10;;;461.40;2380.80;;;;;;5073715;28;20036;-67
2021/05/28 08:24:59;;;;;;;4.18;3.55;;;461.40;2380.80;;;;;;5073400;28;20028;-66
2021/05/28 08:27:25;;;;;;;4.57;3.92;;;461.50;2380.80;;;;;;5073162;28;20052;-67
2021/05/28 08:29:51;;;;;;;4.65;3.85;;;461.60;2380.80;;;;;;5073148;28;20055;-67
2021/05/28 08:32:17;;;;;;;5.88;4.07;;;461.70;2380.80;;;;;;5073568;28;20095;-67
2021/05/28 08:34:42;;;;;;;4.47;3.85;;;486.50;2380.80;;;;;;5073403;28;20052;-68
2021/05/28 08:37:08;;;;;;;5.55;4.32;;;486.50;2380.80;;;;;;5073584;28;20020;-66
2021/05/28 08:39:34;;;;;;;4.47;3.85;;;486.50;2380.80;;;;;;5074353;28;20467;-66
2021/05/28 08:42:01;;;;;;;3.92;3.40;;;486.40;2380.80;;;;;;5073409;28;20047;-66
2021/05/28 08:44:27;;;;;;;4.10;3.17;;;461.70;2380.80;;;;;;5073499;28;20032;-67
2021/05/28 08:46:54;;;;;;;4.82;3.00;;;461.50;2380.80;;;;;;5073350;28;20387;-67
2021/05/28 08:49:23;;;;;;;4.38;3.00;;;461.40;2380.80;;;;;;5073162;28;20031;-66
2021/05/28 08:51:49;;;;;;;3.70;3.00;;;461.40;2380.80;;;;;;5072832;28;20087;-67
2021/05/28 08:54:15;;;;;;;4.43;2.90;;;461.40;2380.80;;;;;;5072514;28;20109;-66
2021/05/28 08:56:41;;;;;;;3.95;3.03;;;461.40;2380.80;;;;;;5073156;28;20048;-65
2021/05/28 08:59:07;;;;;;;4.50;2.88;;;461.40;2380.80;;;;;;5073771;28;20497;-66
2021/05/28 09:01:33;;;;;;;3.72;2.88;;;486.40;2380.80;;;;;;5073154;28;20066;-66
2021/05/28 09:04:05;;;;;;;3.47;2.90;;;486.80;2380.80;;;;;;5072837;28;20031;-67
2021/05/28 09:06:39;;;;;;;5.03;2.50;;;512.10;2380.80;;;;;;5073341;28;20069;-67
2021/05/28 09:09:16;;;;;;;4.55;2.80;;;512.80;2380.80;;;;;;5073288;28;20475;-67
2021/05/28 09:12:01;;;;;;;3.60;2.70;;;537.70;2406.40;;;;;;5073731;28;20040;-66
2021/05/28 09:14:34;;;;;;;3.40;2.53;;;538.10;2406.40;;;;;;5071044;28;20078;-65
2021/05/28 09:17:02;;;;;;;3.50;2.50;;;538.10;2406.40;;;;;;5073320;28;20066;-66
2021/05/28 09:19:28;;;;;;;4.07;2.60;;;537.60;2406.40;;;;;;5073361;28;20067;-67
2021/05/28 09:22:02;;;;;;;5.90;2.70;;;512.20;2380.80;;;;;;5073418;28;20027;-67
2021/05/28 09:24:37;;;;;;;4.68;2.90;;;512.20;2380.80;;;;;;5073019;28;20020;-66
2021/05/28 09:27:24;;;;;;;4.00;2.55;;;512.40;2380.80;;;;;;5073307;28;20035;-66
2021/05/28 09:30:08;;;;;;;4.03;2.78;;;512.30;2380.80;;;;;;5072961;28;20070;-67
2021/05/28 09:32:43;;;;;;;5.32;3.20;;;512.20;2380.80;;;;;;5072750;28;20031;-65
2021/05/28 09:35:15;;;;;;;7.35;3.10;;;512.40;2380.80;;;;;;5072407;28;20024;-67
2021/05/28 09:37:47;;;;;;;6.25;3.30;;;512.50;2380.80;;;;;;5054656;28;20094;-66
2021/05/28 09:40:19;;;;;;;6.63;3.30;;;512.60;2380.80;;;;;;5072472;28;20025;-66
2021/05/28 09:43:03;;;;;;;5.75;3.50;;;512.60;2380.80;;;;;;5072693;28;20379;-66
2021/05/28 09:45:36;;;;;;;4.22;2.85;;;512.50;2380.80;;;;;;5065655;28;20082;-67
2021/05/28 09:48:06;;;;;;;5.05;3.30;;;512.30;2380.80;;;;;;5072625;28;20089;-67
2021/05/28 09:50:33;;;;;;;4.18;3.00;;;512.30;2380.80;;;;;;5065146;28;20025;-66
2021/05/28 09:53:05;;;;;;;5.10;2.85;;;512.20;2380.80;;;;;;5072359;28;20048;-72
2021/05/28 09:55:35;;;;;;;5.43;3.35;;;512.20;2380.80;;;;;;5071742;28;20041;-68
2021/05/28 09:58:00;;;;;;;3.92;3.40;;;512.00;2380.80;;;;;;5072431;28;20024;-67
2021/05/28 10:00:36;;;;;;;4.57;3.67;;;487.10;2380.80;;;;;;5073092;28;20128;-67
2021/05/28 10:03:16;;;;;;;5.60;3.70;;;487.10;2380.80;;;;;;5072603;28;20082;-67
2021/05/28 10:05:44;;;;;;;5.18;3.70;;;487.30;2380.80;;;;;;5071266;28;20048;-65
2021/05/28 10:08:12;;;;;;;3.80;3.25;;;512.10;2380.80;;;;;;5071793;28;20036;-68
2021/05/28 10:10:40;;;;;;;4.25;3.28;;;512.20;2380.80;;;;;;5071900;28;20027;-68
2021/05/28 10:13:10;;;;;;;4.47;3.65;;;512.10;2380.80;;;;;;5072180;28;20024;-68
2021/05/28 10:15:39;;;;;;;3.95;3.42;;;512.00;2380.80;;;;;;5072061;28;20025;-68
2021/05/28 10:18:05;;;;;;;4.65;3.22;;;512.50;2380.80;;;;;;5071694;28;20048;-66
2021/05/28 10:20:31;;;;;;;4.70;3.50;;;512.80;2380.80;;;;;;5071676;28;20035;-68
2021/05/28 10:22:57;;;;;;;3.90;3.20;;;512.80;2380.80;;;;;;5072189;28;20099;-67
2021/05/28 10:25:24;;;;;;;5.65;3.40;;;537.90;2406.40;;;;;;5071812;28;20017;-68
2021/05/28 10:28:01;;;;;;;4.78;3.42;;;538.10;2406.40;;;;;;5071916;28;20063;-67
2021/05/28 10:30:35;;;;;;;3.67;3.30;;;538.20;2406.40;;;;;;5072028;28;20028;-66
2021/05/28 10:33:19;;;;;;;6.78;3.90;;;538.30;2406.40;;;;;;5071909;28;20028;-67
2021/05/28 10:35:48;;;;;;;5.55;3.70;;;537.90;2406.40;;;;;;5071938;28;20023;-67
2021/05/28 10:38:29;;;;;;;5.20;3.72;;;538.00;2406.40;;;;;;5071562;28;20012;-66
2021/05/28 10:41:07;;;;;;;5.03;3.72;;;537.60;2406.40;;;;;;5071822;28;20479;-73
2021/05/28 10:43:35;;;;;;;6.60;4.05;;;512.80;2380.80;;;;;;5071451;28;20024;-67
2021/05/28 10:46:04;;;;;;;9.15;4.60;;;538.00;2406.40;;;;;;5071753;28;20497;-67
2021/05/28 10:48:40;;;;;;;6.50;4.03;;;538.30;2406.40;;;;;;5071794;28;20491;-66
2021/05/28 10:51:07;;;;;;;8.70;4.45;;;563.60;2432.00;;;;;;5072941;28;20433;-72
2021/05/28 10:53:34;;;;;;;12.95;5.13;;;589.00;2432.00;;;;;;5072410;28;20082;-66
2021/05/28 10:56:07;;;;;;;16.17;6.90;;;589.40;2432.00;;;;;;5071844;28;20068;-66
2021/05/28 10:58:54;;;;;;;24.73;7.40;;;589.50;2432.00;;;;;;5071464;28;20021;-67
2021/05/28 11:01:35;;;;;;;12.73;6.90;;;589.50;2432.00;;;;;;5071563;28;20471;-68
2021/05/28 11:04:05;;;;;;;23.98;13.90;;;589.60;2432.00;;;;;;5071505;28;20028;-65
2021/05/28 11:06:33;;;;;;;28.13;11.32;;;589.70;2432.00;;;;;;5071428;28;20029;-71
2021/05/28 11:09:09;;;;;;;20.23;10.23;;;614.40;2432.00;;;;;;5071166;28;20478;-67
2021/05/28 11:11:40;;;;;;;6.45;4.38;;;614.80;2406.40;;;;;;5071743;28;20048;-72
2021/05/28 11:14:11;;;;;;;7.35;4.80;;;614.80;2406.40;;;;;;5071177;28;20099;-71
2021/05/28 11:16:57;;;;;;;12.13;8.73;;;614.60;2329.60;;;;;;5071503;28;20016;-66
2021/05/28 11:19:23;;;;;;;6.53;5.50;;;614.40;2355.20;;;;;;5073924;28;20479;-70
2021/05/28 11:21:58;;;;;;;8.13;6.00;;;589.60;2355.20;;;;;;5071685;28;20028;-66
2021/05/28 11:24:45;;;;;;;8.23;5.20;;;589.70;2355.20;;;;;;5074770;28;20387;-67
2021/05/28 11:27:13;;;;;;;7.65;4.47;;;614.70;2304.00;;;;;;5074786;28;20440;-68
2021/05/28 11:29:39;;;;;;;11.43;4.60;;;614.50;2329.60;;;;;;5074454;28;20054;-71
2021/05/28 11:32:30;;;;;;;5.60;3.90;;;614.50;2304.00;;;;;;5074479;28;20023;-67
2021/05/28 11:35:21;;;;;;;4.60;3.70;;;614.70;2329.60;;;;;;5074718;28;20086;-65
2021/05/28 11:37:59;;;;;;;3.95;3.03;;;615.10;2201.60;;;;;;5074698;28;20024;-66
2021/05/28 11:40:34;;;;;;;4.25;3.30;;;615.10;2201.60;;;;;;5061472;28;20518;-67
2021/05/28 11:43:04;;;;;;;5.85;3.47;;;589.70;2304.00;;;;;;5074293;28;20025;-67
2021/05/28 11:45:30;;;;;;;4.50;3.50;;;614.80;2278.40;;;;;;5074151;28;20499;-66
2021/05/28 11:47:56;;;;;;;4.68;3.50;;;614.60;2278.40;;;;;;5074543;28;20033;-67
2021/05/28 11:50:23;;;;;;;7.47;4.65;;;614.80;2252.80;;;;;;5073714;28;20544;-67
2021/05/28 11:52:57;;;;;;;4.57;3.60;;;614.80;2227.20;;;;;;5074432;28;20032;-67
2021/05/28 11:55:23;;;;;;;7.30;4.60;;;614.60;2252.80;;;;;;5072582;28;20059;-68
2021/05/28 11:58:00;;;;;;;7.53;4.13;;;614.70;2278.40;;;;;;5074553;28;20101;-67
2021/05/28 12:00:26;;;;;;;5.85;3.97;;;614.80;2278.40;;;;;;5073768;28;20101;-67
2021/05/28 12:02:56;;;;;;;5.03;3.92;;;614.80;2201.60;;;;;;5073900;28;20456;-67
2021/05/28 12:05:34;;;;;;;5.97;3.90;;;614.60;2201.60;;;;;;5073328;28;20111;-67
2021/05/28 12:08:25;;;;;;;4.63;3.90;;;614.80;2227.20;;;;;;5073653;28;20441;-65
2021/05/28 12:11:01;;;;;;;5.40;3.80;;;614.60;2201.60;;;;;;5073562;28;20059;-67
2021/05/28 12:13:32;;;;;;;5.65;4.00;;;614.80;2201.60;;;;;;5072301;28;20025;-70
2021/05/28 12:16:00;;;;;;;;;;;614.70;2227.20;;;;;;5073611;28;20021;-67
2021/05/28 12:18:42;;;;;;;4.57;3.50;;;614.40;2252.80;;;;;;5073193;28;19912;-67
2021/05/28 12:21:11;;;;;;;5.20;3.40;;;614.40;2201.60;;;;;;5072931;28;20394;-66